Terminal Aerodrome Forecast
Issued by NWS

Home | Current Version | Previous Version | Text Only | Print | Product List | Glossary On
Versions: 1 2 3 4 5 6 7 8 9 10 11 12 13 14 15 16
245
FTUS44 KLZK 111727
TAFLIT
TAF
KLIT 111727Z 1118/1218 03010KT P6SM SCT250
     FM120000 04005KT P6SM SCT150=

USA.gov is the U.S. government's official web portal to all federal, state and local government web resources and services.